createdAt,value
2019-02-25T00:03:14.531Z,30.10
2019-02-25T00:08:22.175Z,28.63
2019-02-25T00:13:28.711Z,25.97
2019-02-25T00:18:35.059Z,28.43
2019-02-25T00:23:42.381Z,27.03
2019-02-25T00:28:49.804Z,30.10
2019-02-25T00:33:56.923Z,28.90
2019-02-25T00:39:07.662Z,29.60
2019-02-25T00:44:13.935Z,28.73
2019-02-25T00:49:21.419Z,24.43
2019-02-25T00:54:28.963Z,33.33
2019-02-25T00:59:35.248Z,27.23
2019-02-25T01:04:42.439Z,31.80
2019-02-25T01:09:50.550Z,27.30
2019-02-25T01:14:58.310Z,23.37
2019-02-25T01:20:05.836Z,28.10
2019-02-25T01:25:12.407Z,24.57
2019-02-25T01:30:20.469Z,28.90
2019-02-25T01:35:28.302Z,35.80
2019-02-25T01:40:34.743Z,28.97
2019-02-25T01:45:41.722Z,31.80
2019-02-25T01:50:48.437Z,29.20
2019-02-25T01:55:54.822Z,22.87
2019-02-25T02:01:01.840Z,26.90
2019-02-25T02:06:09.731Z,24.93
2019-02-25T02:11:17.532Z,29.80
2019-02-25T02:16:23.881Z,33.93
2019-02-25T02:21:31.450Z,29.10
2019-02-25T02:26:38.854Z,46.13
2019-02-25T02:31:45.413Z,31.07
2019-02-25T02:36:52.115Z,36.87
2019-02-25T02:42:19.187Z,42.17
2019-02-25T02:47:35.981Z,41.97
2019-02-25T02:52:42.377Z,35.70
2019-02-25T02:57:49.612Z,40.23
2019-02-25T03:02:57.241Z,37.23
2019-02-25T03:08:03.525Z,41.03
2019-02-25T03:13:11.156Z,38.73
2019-02-25T03:18:18.542Z,39.90
2019-02-25T03:23:24.658Z,38.07
2019-02-25T03:28:32.238Z,36.53
2019-02-25T03:33:41.268Z,44.87
2019-02-25T03:38:48.385Z,35.93
2019-02-25T03:43:54.601Z,35.53
2019-02-25T03:49:01.673Z,35.60
2019-02-25T03:54:08.426Z,33.77
2019-02-25T03:59:14.942Z,37.20
2019-02-25T04:04:21.839Z,38.80
2019-02-25T04:09:29.081Z,43.90
2019-02-25T04:14:36.796Z,37.63
2019-02-25T04:19:42.975Z,39.00
2019-02-25T04:24:53.763Z,38.57
2019-02-25T04:30:01.940Z,33.67
2019-02-25T04:35:10.535Z,37.27
2019-02-25T04:40:18.262Z,38.37
2019-02-25T04:45:24.576Z,35.70
2019-02-25T04:50:31.547Z,40.53
2019-02-25T04:55:38.884Z,38.40
2019-02-25T05:00:45.286Z,33.47
2019-02-25T05:05:53.251Z,34.90
2019-02-25T05:11:01.395Z,33.57
2019-02-25T05:16:08.028Z,32.83
2019-02-25T05:21:14.235Z,37.80
2019-02-25T05:26:21.368Z,30.87
2019-02-25T05:31:28.556Z,31.50
2019-02-25T05:36:34.841Z,39.63
2019-02-25T05:41:41.546Z,35.17
2019-02-25T05:46:49.817Z,30.33
2019-02-25T05:51:58.312Z,33.07
2019-02-25T05:57:05.351Z,37.20
2019-02-25T06:02:11.866Z,35.03
2019-02-25T06:07:19.824Z,40.57
2019-02-25T06:12:26.790Z,36.10
2019-02-25T06:17:33.181Z,38.77
2019-02-25T06:22:40.498Z,38.97
2019-02-25T06:27:47.054Z,34.13
2019-02-25T06:32:53.454Z,38.80
2019-02-25T06:38:01.459Z,38.60
2019-02-25T06:43:08.178Z,36.77
2019-02-25T06:48:14.403Z,32.40
2019-02-25T06:53:21.549Z,31.13
2019-02-25T06:58:28.711Z,37.83
2019-02-25T07:03:36.773Z,40.23
2019-02-25T07:09:02.853Z,43.97
2019-02-25T07:14:25.008Z,41.80
2019-02-25T07:19:57.725Z,39.60
2019-02-25T07:25:28.976Z,35.00
2019-02-25T07:31:12.286Z,36.60
2019-02-25T07:36:47.635Z,38.67
2019-02-25T07:42:15.978Z,41.30
2019-02-25T07:47:36.706Z,38.60
2019-02-25T07:52:52.437Z,45.57
2019-02-25T07:58:08.551Z,38.57
2019-02-25T08:03:24.440Z,46.53
2019-02-25T08:08:39.652Z,45.37
2019-02-25T08:14:09.434Z,50.50
2019-02-25T08:19:24.791Z,47.13
2019-02-25T08:24:45.278Z,39.53
2019-02-25T08:30:09.378Z,42.40
2019-02-25T08:36:11.798Z,41.27
2019-02-25T08:41:43.541Z,37.67
2019-02-25T08:47:10.477Z,36.87
2019-02-25T08:52:17.466Z,41.60
2019-02-25T08:57:23.868Z,44.67
2019-02-25T09:02:31.476Z,31.00
2019-02-25T09:07:38.911Z,54.83
2019-02-25T09:12:45.014Z,33.37
2019-02-25T09:17:50.305Z,39.40
2019-02-25T09:22:57.367Z,35.50
2019-02-25T09:28:03.818Z,27.50
2019-02-25T09:33:11.634Z,24.77
2019-02-25T09:38:19.638Z,30.43
2019-02-25T09:43:27.570Z,35.00
2019-02-25T09:48:34.115Z,37.40
2019-02-25T09:53:42.274Z,36.03
2019-02-25T09:58:51.925Z,30.87
2019-02-25T10:03:59.114Z,24.97
2019-02-25T10:09:08.605Z,40.07
2019-02-25T10:14:14.983Z,34.33
2019-02-25T10:19:22.989Z,38.50
2019-02-25T10:24:30.724Z,30.73
2019-02-25T10:29:38.859Z,33.63
2019-02-25T10:34:45.128Z,27.13
2019-02-25T10:39:52.427Z,29.97
2019-02-25T10:45:00.324Z,26.83
2019-02-25T10:50:07.770Z,30.33
2019-02-25T10:55:24.350Z,31.10
2019-02-25T11:00:32.174Z,31.27
2019-02-25T11:05:40.227Z,29.03
2019-02-25T11:10:54.941Z,37.50
2019-02-25T11:16:03.480Z,30.93
2019-02-25T11:21:11.686Z,35.73
2019-02-25T11:26:19.135Z,42.20
2019-02-25T11:31:29.011Z,34.87
2019-02-25T11:36:36.527Z,28.63
2019-02-25T11:41:42.999Z,38.17
2019-02-25T11:46:50.596Z,38.90
2019-02-25T11:51:58.528Z,41.47
2019-02-25T11:57:05.144Z,33.00
2019-02-25T12:02:11.965Z,37.80
2019-02-25T12:07:20.464Z,30.00
2019-02-25T12:12:28.174Z,30.33
2019-02-25T12:17:34.682Z,27.03
2019-02-25T12:22:41.600Z,30.57
2019-02-25T12:27:50.088Z,36.90
2019-02-25T12:32:57.850Z,36.13
2019-02-25T12:38:04.686Z,35.07
2019-02-25T12:43:12.223Z,26.23
2019-02-25T12:48:19.866Z,35.10
2019-02-25T12:53:26.820Z,32.23
2019-02-25T12:58:33.295Z,27.23
2019-02-25T13:03:40.882Z,26.03
2019-02-25T13:08:49.032Z,34.27
2019-02-25T13:13:55.537Z,27.97
2019-02-25T13:19:03.299Z,29.80
2019-02-25T13:24:09.979Z,29.37
2019-02-25T13:29:17.319Z,25.53
2019-02-25T13:34:23.841Z,25.07
2019-02-25T13:39:31.928Z,28.80
2019-02-25T13:44:39.762Z,25.20
2019-02-25T13:49:47.769Z,23.87
2019-02-25T13:54:54.083Z,22.30
2019-02-25T14:00:02.386Z,18.77
2019-02-25T14:05:10.307Z,14.63
2019-02-25T14:10:17.039Z,21.73
2019-02-25T14:15:24.046Z,19.57
2019-02-25T14:20:31.694Z,22.67
2019-02-25T14:25:41.532Z,20.73
2019-02-25T14:30:51.404Z,16.23
2019-02-25T14:35:58.120Z,13.67
2019-02-25T14:41:06.867Z,20.17
2019-02-25T14:46:14.540Z,16.93
2019-02-25T14:51:21.462Z,13.37
2019-02-25T14:56:28.259Z,16.63
2019-02-25T15:01:34.648Z,18.70
2019-02-25T15:06:41.813Z,16.17
2019-02-25T15:11:51.204Z,19.97
2019-02-25T15:16:57.747Z,18.82
2019-02-25T15:22:06.528Z,22.23
2019-02-25T15:27:12.994Z,13.33
2019-02-25T15:32:20.926Z,19.33
2019-02-25T15:37:28.786Z,18.93
2019-02-25T15:42:38.420Z,15.23
2019-02-25T15:47:44.803Z,15.73
2019-02-25T15:52:51.681Z,20.27
2019-02-25T15:57:58.254Z,15.57
2019-02-25T16:03:06.198Z,18.50
2019-02-25T16:08:17.068Z,15.93
2019-02-25T16:13:23.386Z,18.00
2019-02-25T16:18:30.421Z,15.80
2019-02-25T16:23:40.707Z,21.73
2019-02-25T16:28:46.803Z,15.70
2019-02-25T16:33:53.890Z,18.27
2019-02-25T16:39:05.406Z,19.60
2019-02-25T16:44:11.788Z,17.97
2019-02-25T16:49:18.608Z,22.87
2019-02-25T16:54:25.252Z,26.47
2019-02-25T16:59:31.616Z,15.40
2019-02-25T17:04:40.244Z,17.67
2019-02-25T17:09:46.988Z,18.63
2019-02-25T17:14:55.135Z,19.60
2019-02-25T17:20:03.298Z,22.30
2019-02-25T17:25:12.121Z,21.00
2019-02-25T17:30:21.619Z,22.33
2019-02-25T17:35:30.677Z,24.47
2019-02-25T17:40:38.203Z,23.07
2019-02-25T17:45:44.755Z,20.20
2019-02-25T17:50:53.393Z,21.03
2019-02-25T17:56:01.214Z,24.00
2019-02-25T18:01:09.761Z,29.57
2019-02-25T18:06:17.158Z,22.97
2019-02-25T18:11:24.612Z,30.43
2019-02-25T18:16:33.274Z,32.10
2019-02-25T18:21:43.254Z,44.90
2019-02-25T18:26:50.300Z,62.47
2019-02-25T18:31:58.114Z,43.27
2019-02-25T18:37:07.047Z,43.93
2019-02-25T18:42:15.451Z,37.30
2019-02-25T18:47:23.447Z,36.73
2019-02-25T18:52:30.113Z,49.90
2019-02-25T18:57:39.098Z,39.70
2019-02-25T19:02:47.903Z,41.83
2019-02-25T19:07:55.519Z,44.83
2019-02-25T19:13:02.176Z,51.90
2019-02-25T19:18:11.129Z,55.03
2019-02-25T19:23:19.394Z,68.90
2019-02-25T19:28:28.131Z,44.93
2019-02-25T19:33:37.090Z,51.13
2019-02-25T19:38:44.131Z,41.87
2019-02-25T19:43:58.965Z,54.67
2019-02-25T19:49:01.529Z,51.93
2019-02-25T19:54:09.811Z,65.50
2019-02-25T19:59:19.933Z,45.40
2019-02-25T20:04:28.886Z,40.80
2019-02-25T20:09:35.059Z,57.27
2019-02-25T20:14:46.583Z,45.83
2019-02-25T20:19:51.867Z,39.47
2019-02-25T20:24:59.890Z,47.00
2019-02-25T20:30:10.113Z,54.00
2019-02-25T20:35:17.822Z,42.20
2019-02-25T20:40:28.725Z,37.00
2019-02-25T20:45:36.155Z,40.00
2019-02-25T20:50:42.777Z,52.03
2019-02-25T20:55:50.698Z,59.97
2019-02-25T21:00:58.865Z,63.20
2019-02-25T21:06:05.160Z,50.83
2019-02-25T21:11:13.510Z,53.70
2019-02-25T21:16:20.031Z,56.67
2019-02-25T21:21:28.082Z,67.80
2019-02-25T21:26:38.606Z,58.97
2019-02-25T21:31:47.246Z,54.50
2019-02-25T21:36:54.643Z,62.33
2019-02-25T21:42:02.474Z,65.07
2019-02-25T21:47:10.373Z,62.47
2019-02-25T21:52:17.619Z,72.73
2019-02-25T21:57:24.145Z,57.23
2019-02-25T22:02:31.866Z,51.27
2019-02-25T22:07:39.851Z,44.03
2019-02-25T22:12:47.481Z,45.40
2019-02-25T22:17:53.711Z,41.50
2019-02-25T22:23:01.438Z,37.43
2019-02-25T22:28:10.143Z,38.13
2019-02-25T22:33:26.758Z,32.80
2019-02-25T22:38:27.791Z,35.93
2019-02-25T22:43:34.283Z,36.37
2019-02-25T22:48:43.302Z,27.57
2019-02-25T22:53:49.590Z,37.67
2019-02-25T22:58:58.682Z,38.20
2019-02-25T23:04:11.091Z,34.30
2019-02-25T23:09:16.494Z,37.07
2019-02-25T23:14:23.374Z,35.07
2019-02-25T23:19:30.929Z,44.10
2019-02-25T23:24:39.815Z,40.23
2019-02-25T23:29:48.318Z,39.17
2019-02-25T23:34:55.346Z,54.20
2019-02-25T23:40:06.754Z,36.10
2019-02-25T23:45:12.991Z,42.57
2019-02-25T23:50:19.057Z,36.73
2019-02-25T23:55:27.755Z,43.77
